• Join FlightAware (Why Join?)
  • Login
  • US Flag 
07:53AM EDT


 

Airport Tracker/Info


-or-


 

Live Flight TrackerFlight Track Log ✈ UAL6044 ✈ 21-Apr-2013 ✈ KFAR - KDEN

Flight Track Log - Related Links

Times and Time Zones

All times are in EDT time to prevent confusion due to time zone crossing. See the UAL6044 flight status page for this flight to view local times or setup timezone preferences in your user account.

Time Position Orientation Groundspeed Altitude Reporting Facility
EDT Latitude Longitude Course Direction KTS MPH feet Rate Location/Type
09:32AM 46.8939 -96.8219 215° Southwest 138 159 2,500  Level Minneapolis Center
09:33AM 46.8517 -96.8658 215° Southwest 180 207 4,300 2,040 Climbing Minneapolis Center
09:34AM 46.8003 -96.9214 217° Southwest 231 266 6,700 2,460 Climbing Minneapolis Center
09:35AM 46.7419 -96.9847 217° Southwest 247 284 9,400 1,860 Climbing Minneapolis Center
09:36AM 46.6756 -97.0564 217° Southwest 283 326 10,600 1,500 Climbing Minneapolis Center
09:37AM 46.6150 -97.1464 226° Southwest 317 365 12,500 1,860 Climbing Minneapolis Center
09:38AM 46.5494 -97.2456 226° Southwest 326 375 14,400 1,740 Climbing Minneapolis Center
09:39AM 46.4881 -97.3386 226° Southwest 332 382 16,100 1,500 Climbing Minneapolis Center
09:40AM 46.4206 -97.4408 226° Southwest 337 388 17,500 1,200 Climbing Minneapolis Center
09:41AM 46.3622 -97.5286 226° Southwest 348 400 18,600 1,320 Climbing Minneapolis Center
09:42AM 46.2806 -97.6500 226° Southwest 350 403 20,200 1,320 Climbing Minneapolis Center
09:43AM 46.2100 -97.7514 225° Southwest 355 409 21,400 1,440 Climbing Minneapolis Center
09:44AM 46.1392 -97.8564 226° Southwest 363 418 23,200 2,100 Climbing Minneapolis Center
09:45AM 46.0722 -97.9556 226° Southwest 351 404 25,700 1,860 Climbing Minneapolis Center
09:46AM 46.0097 -98.0483 226° Southwest 328 377 27,100 1,320 Climbing Minneapolis Center
09:48AM 45.8811 -98.2364 226° Southwest 322 371 29,800 1,260 Climbing Minneapolis Center
09:49AM 45.8167 -98.3267 224° Southwest 324 373 31,100 1,200 Climbing Minneapolis Center
09:50AM 45.7542 -98.4183 226° Southwest 322 371 32,300 1,140 Climbing Minneapolis Center
09:51AM 45.6897 -98.5108 225° Southwest 326 375 33,500 1,020 Climbing Minneapolis Center
09:52AM 45.6256 -98.6033 225° Southwest 328 377 34,400 1,020 Climbing Minneapolis Center
09:53AM 45.5617 -98.6953 225° Southwest 327 376 35,600 780 Climbing Minneapolis Center
09:54AM 45.4989 -98.7847 225° Southwest 322 371 36,000 180 Climbing Minneapolis Center
09:55AM 45.4325 -98.8803 225° Southwest 332 382 36,000  Level Minneapolis Center
09:56AM 45.3594 -98.9817 224° Southwest 355 409 36,000  Level Minneapolis Center
09:57AM 45.2853 -99.0878 225° Southwest 371 427 36,000  Level Minneapolis Center
09:58AM 45.2061 -99.1978 224° Southwest 388 447 36,000  Level Minneapolis Center
09:59AM 45.1250 -99.3114 225° Southwest 402 463 36,000  Level Minneapolis Center
10:00AM 45.0428 -99.4247 224° Southwest 408 470 36,000  Level Minneapolis Center
10:01AM 44.9597 -99.5392 224° Southwest 412 474 36,000  Level Minneapolis Center
10:03AM 44.8106 -99.7461 225° Southwest 414 476 36,000  Level Denver Center
10:03AM 44.7761 -99.7925 224° Southwest 415 478 36,000  Level Minneapolis Center
10:04AM 44.6919 -99.9092 225° Southwest 419 482 36,000  Level Minneapolis Center
10:05AM 44.6072 -100.0236 224° Southwest 420 483 36,000  Level Minneapolis Center
10:06AM 44.5231 -100.1381 224° Southwest 420 483 36,000  Level Minneapolis Center
10:07AM 44.4389 -100.2508 224° Southwest 419 482 36,000  Level Minneapolis Center
10:08AM 44.3533 -100.3667 224° Southwest 423 487 36,000  Level Minneapolis Center
10:09AM 44.2689 -100.4797 224° Southwest 421 484 36,000  Level Minneapolis Center
10:10AM 44.1844 -100.5919 224° Southwest 420 483 36,000  Level Minneapolis Center
10:11AM 44.1000 -100.7042 224° Southwest 419 482 36,000  Level Minneapolis Center
10:12AM 44.0158 -100.8172 224° Southwest 420 483 36,000  Level Minneapolis Center
10:13AM 43.9314 -100.9281 223° Southwest 418 481 36,000  Level Minneapolis Center
10:14AM 43.8436 -101.0408 223° Southwest 425 489 36,000  Level Minneapolis Center
10:16AM 43.7578 -101.1542 224° Southwest 426 490 36,000  Level Minneapolis Center
10:17AM 43.6714 -101.2661 223° Southwest 426 490 36,000  Level Minneapolis Center
10:17AM 43.6022 -101.3558 223° Southwest 426 490 36,000  Level Denver Center
10:18AM 43.4967 -101.4897 223° Southwest 430 495 36,000  Level Denver Center
10:19AM 43.3917 -101.5769 211° Southwest 440 506 36,000  Level Denver Center
10:20AM 43.2864 -101.6633 211° Southwest 440 506 36,000  Level Denver Center
10:21AM 43.1800 -101.7506 211° Southwest 444 511 36,000  Level Denver Center
10:22AM 43.0697 -101.8389 210° Southwest 448 516 36,000  Level Denver Center
10:24AM 42.9681 -101.9217 211° Southwest 445 512 36,000  Level Denver Center
10:25AM 42.8475 -102.0194 211° Southwest 448 516 36,000  Level Denver Center
10:26AM 42.7439 -102.1011 210° Southwest 450 518 36,000  Level Denver Center
10:27AM 42.6261 -102.1967 211° Southwest 442 509 36,000  Level Denver Center
10:28AM 42.5236 -102.2767 210° Southwest 442 509 36,000  Level Denver Center
10:29AM 42.4058 -102.3703 210° Southwest 439 505 36,000  Level Denver Center
10:30AM 42.3047 -102.4494 210° Southwest 438 504 36,000 -300 Level Denver Center
10:31AM 42.2036 -102.5297 210° Southwest 440 506 35,400 -840 Descending Denver Center
10:32AM 42.0856 -102.6231 210° Southwest 437 503 34,300 -1,020 Descending Denver Center
10:33AM 41.9819 -102.7028 210° Southwest 444 511 33,300 -1,020 Descending Denver Center
10:34AM 41.8636 -102.7944 210° Southwest 439 505 32,200 -660 Descending Denver Center
10:35AM 41.7608 -102.8733 210° Southwest 442 509 32,000 -120 Descending Denver Center
10:36AM 41.6403 -102.9664 210° Southwest 446 513 32,000  Level Denver Center
10:37AM 41.5392 -103.0436 210° Southwest 437 503 32,000  Level Denver Center
10:38AM 41.4358 -103.1219 210° Southwest 443 510 32,000  Level Denver Center
10:39AM 41.3169 -103.2128 210° Southwest 439 505 32,000  Level Denver Center
10:40AM 41.2136 -103.2914 210° Southwest 445 512 32,000  Level Denver Center
10:41AM 41.0942 -103.3806 209° Southwest 441 507 32,000  Level Denver Center
10:42AM 40.9922 -103.4578 210° Southwest 440 506 32,000 -300 Level Denver Center
10:43AM 40.8717 -103.5375 207° Southwest 440 506 31,400 -1,500 Descending Denver Center
10:44AM 40.7508 -103.5942 200° South 452 520 28,900 -2,520 Descending Denver Center
10:45AM 40.6375 -103.6517 201° Southwest 435 501 26,300 -2,460 Descending Denver Center
10:46AM 40.5517 -103.7411 218° Southwest 391 450 23,900 -2,160 Descending Denver Center
10:47AM 40.4789 -103.8367 225° Southwest 370 426 21,900 -1,920 Descending Denver Center
10:48AM 40.4042 -103.9422 227° Southwest 355 409 20,000 -1,800 Descending Denver Center
10:49AM 40.3569 -104.0411 238° Southwest 317 365 18,200 -1,800 Descending Denver Center
10:50AM 40.3550 -104.1517 269° West 307 353 16,300 -1,680 Descending Denver Center
10:51AM 40.3539 -104.2672 269° West 297 342 14,800 -1,140 Descending Denver Center
10:52AM 40.3531 -104.3614 269° West 266 306 14,000 -780 Descending Denver Center
10:53AM 40.3403 -104.4539 260° West 244 281 13,200 -780 Descending Denver Center
10:54AM 40.3275 -104.5394 259° West 240 276 12,400 -960 Descending Denver Center
10:55AM 40.2894 -104.6156 237° Southwest 254 292 11,300 -1,020 Descending Denver Center
10:56AM 40.2244 -104.6625 209° Southwest 268 308 10,400 -660 Descending Denver Center
10:58AM 40.1564 -104.6939 199° South 269 310 10,000 -780 Descending Denver Center
10:59AM 40.0769 -104.6939 180° South 266 306 8,800 -1,260 Descending Denver Center
11:00AM 40.0056 -104.6950 181° South 258 297 7,400 -1,320 Descending Denver Center
11:01AM 39.9394 -104.6956 180° South 213 245 6,100 -1,020 Descending Denver Center
11:02AM 39.8936 -104.6964 181° South 164 189 5,300 -780 Descending Denver Center
11:04AM 39.8617 -104.6732 180° South  Level Estimated
11:11AM 39.8617 -104.6732 180° South  Level Estimated
11:12AM 39.8617 -104.6732 180° South  Level Estimated
11:13AM 39.8617 -104.6732 180° South  Level Estimated